sensor_id;sensor_type;location;lat;lon;timestamp;P1;durP1;ratioP1;P2;durP2;ratioP2
64857;SDS011;51335;51.148;6.950;2023-04-08T00:00:18;55.33;;;24.23;;
64857;SDS011;51335;51.148;6.950;2023-04-08T00:00:48;50.92;;;24.67;;
64857;SDS011;51335;51.148;6.950;2023-04-08T00:01:18;53.03;;;25.10;;
64857;SDS011;51335;51.148;6.950;2023-04-08T00:01:49;51.05;;;24.75;;
64857;SDS011;51335;51.148;6.950;2023-04-08T00:02:19;56.75;;;25.40;;
64857;SDS011;51335;51.148;6.950;2023-04-08T00:02:49;54.45;;;24.65;;
64857;SDS011;51335;51.148;6.950;2023-04-08T00:03:20;54.45;;;24.98;;
64857;SDS011;51335;51.148;6.950;2023-04-08T00:03:50;50.97;;;25.02;;
64857;SDS011;51335;51.148;6.950;2023-04-08T00:04:20;52.90;;;24.52;;
64857;SDS011;51335;51.148;6.950;2023-04-08T00:04:51;49.90;;;24.70;;
64857;SDS011;51335;51.148;6.950;2023-04-08T00:05:21;52.20;;;25.45;;
64857;SDS011;51335;51.148;6.950;2023-04-08T00:05:51;61.38;;;25.00;;
64857;SDS011;51335;51.148;6.950;2023-04-08T00:06:21;50.13;;;23.75;;
64857;SDS011;51335;51.148;6.950;2023-04-08T00:06:52;49.70;;;24.55;;
64857;SDS011;51335;51.148;6.950;2023-04-08T00:07:22;47.42;;;23.83;;
64857;SDS011;51335;51.148;6.950;2023-04-08T00:07:52;51.03;;;24.20;;
64857;SDS011;51335;51.148;6.950;2023-04-08T00:08:23;59.63;;;25.38;;
64857;SDS011;51335;51.148;6.950;2023-04-08T00:08:53;53.25;;;23.80;;
64857;SDS011;51335;51.148;6.950;2023-04-08T00:09:23;52.95;;;24.25;;
64857;SDS011;51335;51.148;6.950;2023-04-08T00:09:53;49.97;;;24.55;;
64857;SDS011;51335;51.148;6.950;2023-04-08T00:10:24;44.08;;;23.15;;
64857;SDS011;51335;51.148;6.950;2023-04-08T00:10:54;50.47;;;23.15;;
64857;SDS011;51335;51.148;6.950;2023-04-08T00:11:24;51.90;;;24.00;;
64857;SDS011;51335;51.148;6.950;2023-04-08T00:11:55;49.20;;;23.90;;
64857;SDS011;51335;51.148;6.950;2023-04-08T00:12:25;50.75;;;24.25;;
64857;SDS011;51335;51.148;6.950;2023-04-08T00:12:55;51.53;;;25.27;;
64857;SDS011;51335;51.148;6.950;2023-04-08T00:13:25;48.05;;;23.55;;
64857;SDS011;51335;51.148;6.950;2023-04-08T00:13:56;52.97;;;24.92;;
64857;SDS011;51335;51.148;6.950;2023-04-08T00:14:26;57.13;;;24.90;;
64857;SDS011;51335;51.148;6.950;2023-04-08T00:14:56;52.53;;;25.05;;
64857;SDS011;51335;51.148;6.950;2023-04-08T00:15:27;50.47;;;24.50;;
64857;SDS011;51335;51.148;6.950;2023-04-08T00:15:57;49.78;;;24.95;;
64857;SDS011;51335;51.148;6.950;2023-04-08T00:16:27;45.50;;;23.98;;
64857;SDS011;51335;51.148;6.950;2023-04-08T00:16:57;54.63;;;24.52;;
64857;SDS011;51335;51.148;6.950;2023-04-08T00:17:28;51.42;;;24.55;;
64857;SDS011;51335;51.148;6.950;2023-04-08T00:17:58;48.20;;;23.70;;
64857;SDS011;51335;51.148;6.950;2023-04-08T00:18:28;52.65;;;23.25;;
64857;SDS011;51335;51.148;6.950;2023-04-08T00:18:58;43.80;;;22.98;;
64857;SDS011;51335;51.148;6.950;2023-04-08T00:19:29;45.58;;;23.55;;
64857;SDS011;51335;51.148;6.950;2023-04-08T00:19:59;49.13;;;23.50;;
64857;SDS011;51335;51.148;6.950;2023-04-08T00:20:29;47.13;;;23.55;;
64857;SDS011;51335;51.148;6.950;2023-04-08T00:20:59;44.80;;;22.67;;
64857;SDS011;51335;51.148;6.950;2023-04-08T00:21:30;44.25;;;22.92;;
64857;SDS011;51335;51.148;6.950;2023-04-08T00:22:00;47.13;;;23.17;;
64857;SDS011;51335;51.148;6.950;2023-04-08T00:22:31;45.08;;;23.00;;
64857;SDS011;51335;51.148;6.950;2023-04-08T00:23:01;47.95;;;23.23;;
64857;SDS011;51335;51.148;6.950;2023-04-08T00:23:31;42.03;;;21.92;;
64857;SDS011;51335;51.148;6.950;2023-04-08T00:24:01;46.97;;;22.70;;
64857;SDS011;51335;51.148;6.950;2023-04-08T00:24:32;40.28;;;21.80;;
64857;SDS011;51335;51.148;6.950;2023-04-08T00:25:02;43.03;;;23.00;;
64857;SDS011;51335;51.148;6.950;2023-04-08T00:25:33;43.15;;;22.25;;
64857;SDS011;51335;51.148;6.950;2023-04-08T00:26:03;47.42;;;22.60;;
64857;SDS011;51335;51.148;6.950;2023-04-08T00:26:34;42.30;;;22.35;;
64857;SDS011;51335;51.148;6.950;2023-04-08T00:27:04;39.67;;;21.50;;
64857;SDS011;51335;51.148;6.950;2023-04-08T00:27:34;39.28;;;21.00;;
64857;SDS011;51335;51.148;6.950;2023-04-08T00:28:04;40.95;;;21.40;;
64857;SDS011;51335;51.148;6.950;2023-04-08T00:28:35;41.60;;;22.67;;
64857;SDS011;51335;51.148;6.950;2023-04-08T00:29:05;46.35;;;23.42;;
64857;SDS011;51335;51.148;6.950;2023-04-08T00:29:35;42.03;;;23.00;;
64857;SDS011;51335;51.148;6.950;2023-04-08T00:30:05;41.47;;;21.75;;
64857;SDS011;51335;51.148;6.950;2023-04-08T00:30:36;46.70;;;23.27;;
64857;SDS011;51335;51.148;6.950;2023-04-08T00:31:06;53.20;;;22.95;;
64857;SDS011;51335;51.148;6.950;2023-04-08T00:31:37;46.55;;;22.80;;
64857;SDS011;51335;51.148;6.950;2023-04-08T00:32:07;49.13;;;24.70;;
64857;SDS011;51335;51.148;6.950;2023-04-08T00:32:38;41.70;;;22.88;;
64857;SDS011;51335;51.148;6.950;2023-04-08T00:33:08;56.05;;;23.88;;
64857;SDS011;51335;51.148;6.950;2023-04-08T00:33:38;58.58;;;24.80;;
64857;SDS011;51335;51.148;6.950;2023-04-08T00:34:08;49.10;;;24.60;;
64857;SDS011;51335;51.148;6.950;2023-04-08T00:34:39;46.65;;;23.60;;
64857;SDS011;51335;51.148;6.950;2023-04-08T00:35:09;49.28;;;24.15;;
64857;SDS011;51335;51.148;6.950;2023-04-08T00:35:39;47.50;;;23.17;;
64857;SDS011;51335;51.148;6.950;2023-04-08T00:36:10;45.90;;;23.63;;
64857;SDS011;51335;51.148;6.950;2023-04-08T00:36:40;46.35;;;22.98;;
64857;SDS011;51335;51.148;6.950;2023-04-08T00:37:10;44.72;;;23.27;;
64857;SDS011;51335;51.148;6.950;2023-04-08T00:37:40;46.55;;;22.65;;
64857;SDS011;51335;51.148;6.950;2023-04-08T00:38:11;47.15;;;22.88;;
64857;SDS011;51335;51.148;6.950;2023-04-08T00:38:41;45.05;;;21.73;;
64857;SDS011;51335;51.148;6.950;2023-04-08T00:39:12;45.15;;;22.85;;
64857;SDS011;51335;51.148;6.950;2023-04-08T00:39:42;49.92;;;22.33;;
64857;SDS011;51335;51.148;6.950;2023-04-08T00:40:13;42.97;;;22.60;;
64857;SDS011;51335;51.148;6.950;2023-04-08T00:40:43;45.03;;;22.02;;
64857;SDS011;51335;51.148;6.950;2023-04-08T00:41:13;46.33;;;23.20;;
64857;SDS011;51335;51.148;6.950;2023-04-08T00:41:44;43.40;;;22.13;;
64857;SDS011;51335;51.148;6.950;2023-04-08T00:42:14;46.80;;;22.55;;
64857;SDS011;51335;51.148;6.950;2023-04-08T00:42:44;50.53;;;23.58;;
64857;SDS011;51335;51.148;6.950;2023-04-08T00:43:14;38.72;;;21.52;;
64857;SDS011;51335;51.148;6.950;2023-04-08T00:43:45;39.25;;;21.42;;
64857;SDS011;51335;51.148;6.950;2023-04-08T00:44:15;39.47;;;21.80;;
64857;SDS011;51335;51.148;6.950;2023-04-08T00:44:45;39.33;;;21.83;;
64857;SDS011;51335;51.148;6.950;2023-04-08T00:45:15;43.78;;;22.48;;
64857;SDS011;51335;51.148;6.950;2023-04-08T00:45:46;40.45;;;20.90;;
64857;SDS011;51335;51.148;6.950;2023-04-08T00:46:16;42.55;;;21.75;;
64857;SDS011;51335;51.148;6.950;2023-04-08T00:46:47;40.83;;;21.33;;
64857;SDS011;51335;51.148;6.950;2023-04-08T00:47:17;41.50;;;22.75;;
64857;SDS011;51335;51.148;6.950;2023-04-08T00:47:48;39.88;;;21.55;;
64857;SDS011;51335;51.148;6.950;2023-04-08T00:48:18;36.28;;;21.40;;
64857;SDS011;51335;51.148;6.950;2023-04-08T00:48:48;41.25;;;21.85;;
64857;SDS011;51335;51.148;6.950;2023-04-08T00:49:18;41.97;;;21.75;;
64857;SDS011;51335;51.148;6.950;2023-04-08T00:49:49;40.45;;;22.02;;
64857;SDS011;51335;51.148;6.950;2023-04-08T00:50:19;38.42;;;20.58;;
64857;SDS011;51335;51.148;6.950;2023-04-08T00:50:50;39.60;;;20.80;;
64857;SDS011;51335;51.148;6.950;2023-04-08T00:51:20;39.67;;;21.90;;
64857;SDS011;51335;51.148;6.950;2023-04-08T00:51:50;43.10;;;21.25;;
64857;SDS011;51335;51.148;6.950;2023-04-08T00:52:21;40.83;;;21.00;;
64857;SDS011;51335;51.148;6.950;2023-04-08T00:52:51;39.72;;;21.35;;
64857;SDS011;51335;51.148;6.950;2023-04-08T00:53:21;39.75;;;21.20;;
64857;SDS011;51335;51.148;6.950;2023-04-08T00:53:51;35.80;;;20.63;;
64857;SDS011;51335;51.148;6.950;2023-04-08T00:54:22;37.88;;;20.48;;
64857;SDS011;51335;51.148;6.950;2023-04-08T00:54:52;38.13;;;20.67;;
64857;SDS011;51335;51.148;6.950;2023-04-08T00:55:22;34.03;;;20.48;;
64857;SDS011;51335;51.148;6.950;2023-04-08T00:55:53;36.80;;;20.52;;
64857;SDS011;51335;51.148;6.950;2023-04-08T00:56:23;36.40;;;20.75;;
64857;SDS011;51335;51.148;6.950;2023-04-08T00:56:53;35.67;;;20.95;;
64857;SDS011;51335;51.148;6.950;2023-04-08T00:57:23;37.20;;;20.73;;
64857;SDS011;51335;51.148;6.950;2023-04-08T00:57:54;38.03;;;20.63;;
64857;SDS011;51335;51.148;6.950;2023-04-08T00:58:25;37.95;;;21.45;;
64857;SDS011;51335;51.148;6.950;2023-04-08T00:58:58;38.30;;;20.98;;
64857;SDS011;51335;51.148;6.950;2023-04-08T00:59:29;37.25;;;20.58;;
64857;SDS011;51335;51.148;6.950;2023-04-08T01:00:01;35.08;;;20.48;;
64857;SDS011;51335;51.148;6.950;2023-04-08T01:00:33;35.88;;;20.98;;
64857;SDS011;51335;51.148;6.950;2023-04-08T01:01:08;37.78;;;21.05;;
64857;SDS011;51335;51.148;6.950;2023-04-08T01:04:19;34.25;;;19.80;;
64857;SDS011;51335;51.148;6.950;2023-04-08T01:05:15;37.70;;;19.88;;
64857;SDS011;51335;51.148;6.950;2023-04-08T01:05:55;32.33;;;19.25;;
64857;SDS011;51335;51.148;6.950;2023-04-08T01:06:51;36.63;;;19.25;;
64857;SDS011;51335;51.148;6.950;2023-04-08T01:07:26;36.17;;;19.23;;
64857;SDS011;51335;51.148;6.950;2023-04-08T01:08:00;34.33;;;19.58;;
64857;SDS011;51335;51.148;6.950;2023-04-08T01:08:36;36.25;;;19.10;;
64857;SDS011;51335;51.148;6.950;2023-04-08T01:09:09;39.28;;;20.17;;
64857;SDS011;51335;51.148;6.950;2023-04-08T01:09:42;33.85;;;20.17;;
64857;SDS011;51335;51.148;6.950;2023-04-08T01:10:28;33.53;;;20.65;;
64857;SDS011;51335;51.148;6.950;2023-04-08T01:11:00;37.30;;;20.48;;
64857;SDS011;51335;51.148;6.950;2023-04-08T01:11:34;40.38;;;21.13;;
64857;SDS011;51335;51.148;6.950;2023-04-08T01:12:11;35.35;;;20.90;;
64857;SDS011;51335;51.148;6.950;2023-04-08T01:12:48;38.67;;;21.45;;
64857;SDS011;51335;51.148;6.950;2023-04-08T01:13:22;40.38;;;20.75;;
64857;SDS011;51335;51.148;6.950;2023-04-08T01:13:54;41.58;;;20.90;;
64857;SDS011;51335;51.148;6.950;2023-04-08T01:14:26;41.38;;;22.13;;
64857;SDS011;51335;51.148;6.950;2023-04-08T01:14:59;42.40;;;21.95;;
64857;SDS011;51335;51.148;6.950;2023-04-08T01:15:32;38.95;;;21.38;;
64857;SDS011;51335;51.148;6.950;2023-04-08T01:16:06;41.10;;;21.65;;
64857;SDS011;51335;51.148;6.950;2023-04-08T01:16:39;39.47;;;21.27;;
64857;SDS011;51335;51.148;6.950;2023-04-08T01:17:10;41.92;;;21.98;;
64857;SDS011;51335;51.148;6.950;2023-04-08T01:17:40;39.50;;;21.73;;
64857;SDS011;51335;51.148;6.950;2023-04-08T01:18:13;44.92;;;22.95;;
64857;SDS011;51335;51.148;6.950;2023-04-08T01:18:44;43.00;;;22.30;;
64857;SDS011;51335;51.148;6.950;2023-04-08T01:19:18;46.25;;;22.17;;
64857;SDS011;51335;51.148;6.950;2023-04-08T01:19:56;44.85;;;22.52;;
64857;SDS011;51335;51.148;6.950;2023-04-08T01:20:29;42.13;;;22.20;;
64857;SDS011;51335;51.148;6.950;2023-04-08T01:20:59;44.22;;;22.27;;
64857;SDS011;51335;51.148;6.950;2023-04-08T01:21:31;43.40;;;22.65;;
64857;SDS011;51335;51.148;6.950;2023-04-08T01:22:04;41.95;;;22.52;;
64857;SDS011;51335;51.148;6.950;2023-04-08T01:24:30;40.55;;;20.48;;
64857;SDS011;51335;51.148;6.950;2023-04-08T01:25:07;38.88;;;20.33;;
64857;SDS011;51335;51.148;6.950;2023-04-08T01:25:52;40.60;;;20.25;;
64857;SDS011;51335;51.148;6.950;2023-04-08T01:26:24;39.53;;;20.40;;
64857;SDS011;51335;51.148;6.950;2023-04-08T01:26:55;40.47;;;20.63;;
64857;SDS011;51335;51.148;6.950;2023-04-08T01:27:27;37.13;;;21.13;;
64857;SDS011;51335;51.148;6.950;2023-04-08T01:28:10;43.47;;;21.67;;
64857;SDS011;51335;51.148;6.950;2023-04-08T01:28:42;35.17;;;20.08;;
64857;SDS011;51335;51.148;6.950;2023-04-08T01:29:12;38.33;;;21.38;;
64857;SDS011;51335;51.148;6.950;2023-04-08T01:29:45;37.63;;;21.17;;
64857;SDS011;51335;51.148;6.950;2023-04-08T01:30:18;43.63;;;23.02;;
64857;SDS011;51335;51.148;6.950;2023-04-08T01:30:49;42.53;;;23.15;;
64857;SDS011;51335;51.148;6.950;2023-04-08T01:31:21;43.33;;;22.90;;
64857;SDS011;51335;51.148;6.950;2023-04-08T01:31:53;47.65;;;23.05;;
64857;SDS011;51335;51.148;6.950;2023-04-08T01:32:25;46.20;;;24.48;;
64857;SDS011;51335;51.148;6.950;2023-04-08T01:32:56;46.67;;;23.35;;
64857;SDS011;51335;51.148;6.950;2023-04-08T01:33:28;48.47;;;23.23;;
64857;SDS011;51335;51.148;6.950;2023-04-08T01:34:00;45.47;;;23.13;;
64857;SDS011;51335;51.148;6.950;2023-04-08T01:34:32;47.80;;;23.35;;
64857;SDS011;51335;51.148;6.950;2023-04-08T01:35:04;46.42;;;22.33;;
64857;SDS011;51335;51.148;6.950;2023-04-08T01:35:35;44.78;;;22.33;;
64857;SDS011;51335;51.148;6.950;2023-04-08T01:36:06;44.10;;;22.10;;
64857;SDS011;51335;51.148;6.950;2023-04-08T01:36:38;48.78;;;23.27;;
64857;SDS011;51335;51.148;6.950;2023-04-08T01:37:09;45.38;;;23.00;;
64857;SDS011;51335;51.148;6.950;2023-04-08T01:37:41;44.25;;;23.13;;
64857;SDS011;51335;51.148;6.950;2023-04-08T01:38:14;44.65;;;23.88;;
64857;SDS011;51335;51.148;6.950;2023-04-08T01:38:46;40.30;;;22.75;;
64857;SDS011;51335;51.148;6.950;2023-04-08T01:39:18;41.15;;;23.02;;
64857;SDS011;51335;51.148;6.950;2023-04-08T01:39:49;45.05;;;23.17;;
64857;SDS011;51335;51.148;6.950;2023-04-08T01:40:21;38.08;;;22.60;;
64857;SDS011;51335;51.148;6.950;2023-04-08T01:40:52;45.67;;;22.83;;
64857;SDS011;51335;51.148;6.950;2023-04-08T01:41:24;43.63;;;22.60;;
64857;SDS011;51335;51.148;6.950;2023-04-08T01:41:54;41.78;;;23.05;;
64857;SDS011;51335;51.148;6.950;2023-04-08T01:42:26;50.40;;;23.45;;
64857;SDS011;51335;51.148;6.950;2023-04-08T01:42:57;43.60;;;22.73;;
64857;SDS011;51335;51.148;6.950;2023-04-08T01:43:28;44.03;;;24.08;;
64857;SDS011;51335;51.148;6.950;2023-04-08T01:43:59;45.25;;;22.40;;
64857;SDS011;51335;51.148;6.950;2023-04-08T01:44:30;49.22;;;24.10;;
64857;SDS011;51335;51.148;6.950;2023-04-08T01:45:01;47.10;;;24.35;;
64857;SDS011;51335;51.148;6.950;2023-04-08T01:45:32;51.63;;;24.70;;
64857;SDS011;51335;51.148;6.950;2023-04-08T01:46:03;45.65;;;24.58;;
64857;SDS011;51335;51.148;6.950;2023-04-08T01:46:35;47.38;;;23.60;;
64857;SDS011;51335;51.148;6.950;2023-04-08T01:47:06;49.58;;;25.15;;
64857;SDS011;51335;51.148;6.950;2023-04-08T01:47:38;49.03;;;24.80;;
64857;SDS011;51335;51.148;6.950;2023-04-08T01:48:09;45.97;;;24.15;;
64857;SDS011;51335;51.148;6.950;2023-04-08T01:48:42;55.78;;;25.40;;
64857;SDS011;51335;51.148;6.950;2023-04-08T01:49:14;56.20;;;25.45;;
64857;SDS011;51335;51.148;6.950;2023-04-08T01:49:45;49.38;;;25.30;;
64857;SDS011;51335;51.148;6.950;2023-04-08T01:50:16;58.20;;;26.15;;
64857;SDS011;51335;51.148;6.950;2023-04-08T01:50:47;57.15;;;26.67;;
64857;SDS011;51335;51.148;6.950;2023-04-08T01:51:18;57.95;;;25.88;;
64857;SDS011;51335;51.148;6.950;2023-04-08T01:51:50;55.78;;;26.45;;
64857;SDS011;51335;51.148;6.950;2023-04-08T01:52:22;62.65;;;27.60;;
64857;SDS011;51335;51.148;6.950;2023-04-08T01:52:55;56.78;;;26.45;;
64857;SDS011;51335;51.148;6.950;2023-04-08T01:53:27;57.00;;;26.45;;
64857;SDS011;51335;51.148;6.950;2023-04-08T01:53:58;60.30;;;26.58;;
64857;SDS011;51335;51.148;6.950;2023-04-08T01:54:28;59.92;;;27.27;;
64857;SDS011;51335;51.148;6.950;2023-04-08T01:54:58;63.45;;;27.20;;
64857;SDS011;51335;51.148;6.950;2023-04-08T01:55:29;57.55;;;27.15;;
64857;SDS011;51335;51.148;6.950;2023-04-08T01:56:03;64.07;;;27.63;;
64857;SDS011;51335;51.148;6.950;2023-04-08T01:56:36;57.60;;;26.08;;
64857;SDS011;51335;51.148;6.950;2023-04-08T01:57:10;60.83;;;27.35;;
64857;SDS011;51335;51.148;6.950;2023-04-08T01:57:43;57.60;;;27.42;;
64857;SDS011;51335;51.148;6.950;2023-04-08T01:58:23;51.35;;;25.55;;
64857;SDS011;51335;51.148;6.950;2023-04-08T01:58:55;55.42;;;25.58;;
64857;SDS011;51335;51.148;6.950;2023-04-08T01:59:28;56.75;;;26.25;;
64857;SDS011;51335;51.148;6.950;2023-04-08T02:00:12;56.03;;;25.90;;
64857;SDS011;51335;51.148;6.950;2023-04-08T02:00:44;61.80;;;25.38;;
64857;SDS011;51335;51.148;6.950;2023-04-08T02:01:16;57.72;;;26.55;;
64857;SDS011;51335;51.148;6.950;2023-04-08T02:01:48;62.65;;;27.30;;
64857;SDS011;51335;51.148;6.950;2023-04-08T02:02:21;54.50;;;25.90;;
64857;SDS011;51335;51.148;6.950;2023-04-08T02:02:53;64.07;;;28.13;;
64857;SDS011;51335;51.148;6.950;2023-04-08T02:03:25;61.83;;;27.63;;
64857;SDS011;51335;51.148;6.950;2023-04-08T02:03:58;57.22;;;27.42;;
64857;SDS011;51335;51.148;6.950;2023-04-08T02:04:30;64.50;;;28.25;;
64857;SDS011;51335;51.148;6.950;2023-04-08T02:05:03;61.65;;;28.08;;
64857;SDS011;51335;51.148;6.950;2023-04-08T02:05:33;62.28;;;28.05;;
64857;SDS011;51335;51.148;6.950;2023-04-08T02:06:04;60.65;;;27.45;;
64857;SDS011;51335;51.148;6.950;2023-04-08T02:06:34;62.25;;;27.17;;
64857;SDS011;51335;51.148;6.950;2023-04-08T02:07:06;63.13;;;28.38;;
64857;SDS011;51335;51.148;6.950;2023-04-08T02:07:36;60.72;;;28.38;;
64857;SDS011;51335;51.148;6.950;2023-04-08T02:08:07;64.45;;;27.88;;
64857;SDS011;51335;51.148;6.950;2023-04-08T02:08:37;61.42;;;27.77;;
64857;SDS011;51335;51.148;6.950;2023-04-08T02:09:07;66.93;;;28.88;;
64857;SDS011;51335;51.148;6.950;2023-04-08T02:09:38;63.17;;;29.10;;
64857;SDS011;51335;51.148;6.950;2023-04-08T02:10:08;68.82;;;29.25;;
64857;SDS011;51335;51.148;6.950;2023-04-08T02:10:38;71.85;;;28.75;;
64857;SDS011;51335;51.148;6.950;2023-04-08T02:11:09;63.53;;;28.05;;
64857;SDS011;51335;51.148;6.950;2023-04-08T02:11:39;64.78;;;28.90;;
64857;SDS011;51335;51.148;6.950;2023-04-08T02:12:09;60.80;;;27.63;;
64857;SDS011;51335;51.148;6.950;2023-04-08T02:12:41;61.55;;;28.35;;
64857;SDS011;51335;51.148;6.950;2023-04-08T02:13:12;61.70;;;27.48;;
64857;SDS011;51335;51.148;6.950;2023-04-08T02:13:42;67.72;;;28.85;;
64857;SDS011;51335;51.148;6.950;2023-04-08T02:14:12;62.92;;;28.48;;
64857;SDS011;51335;51.148;6.950;2023-04-08T02:14:43;65.90;;;29.13;;
64857;SDS011;51335;51.148;6.950;2023-04-08T02:15:13;60.22;;;28.17;;
64857;SDS011;51335;51.148;6.950;2023-04-08T02:15:46;58.88;;;27.10;;
64857;SDS011;51335;51.148;6.950;2023-04-08T02:17:01;60.30;;;26.48;;
64857;SDS011;51335;51.148;6.950;2023-04-08T02:17:44;60.55;;;27.30;;
64857;SDS011;51335;51.148;6.950;2023-04-08T02:18:21;56.08;;;25.67;;
64857;SDS011;51335;51.148;6.950;2023-04-08T02:19:58;55.90;;;25.65;;
64857;SDS011;51335;51.148;6.950;2023-04-08T02:20:07;59.60;;;25.08;;
64857;SDS011;51335;51.148;6.950;2023-04-08T02:20:43;52.83;;;25.17;;
64857;SDS011;51335;51.148;6.950;2023-04-08T02:21:19;59.65;;;26.77;;
64857;SDS011;51335;51.148;6.950;2023-04-08T02:22:04;58.50;;;26.27;;
64857;SDS011;51335;51.148;6.950;2023-04-08T02:23:26;56.65;;;25.30;;
64857;SDS011;51335;51.148;6.950;2023-04-08T02:23:58;60.97;;;25.70;;
64857;SDS011;51335;51.148;6.950;2023-04-08T02:24:31;60.55;;;25.92;;
64857;SDS011;51335;51.148;6.950;2023-04-08T02:25:04;54.75;;;25.45;;
64857;SDS011;51335;51.148;6.950;2023-04-08T02:25:39;54.83;;;25.92;;
64857;SDS011;51335;51.148;6.950;2023-04-08T02:26:12;55.95;;;26.08;;
64857;SDS011;51335;51.148;6.950;2023-04-08T02:26:43;59.20;;;26.63;;
64857;SDS011;51335;51.148;6.950;2023-04-08T02:27:16;63.67;;;27.38;;
64857;SDS011;51335;51.148;6.950;2023-04-08T02:27:48;60.35;;;27.48;;
64857;SDS011;51335;51.148;6.950;2023-04-08T02:28:19;63.85;;;28.83;;
64857;SDS011;51335;51.148;6.950;2023-04-08T02:28:51;69.45;;;28.50;;
64857;SDS011;51335;51.148;6.950;2023-04-08T02:29:23;66.07;;;27.60;;
64857;SDS011;51335;51.148;6.950;2023-04-08T02:29:55;67.07;;;27.80;;
64857;SDS011;51335;51.148;6.950;2023-04-08T02:30:27;64.30;;;27.80;;
64857;SDS011;51335;51.148;6.950;2023-04-08T02:31:00;64.68;;;28.33;;
64857;SDS011;51335;51.148;6.950;2023-04-08T02:31:32;61.67;;;28.27;;
64857;SDS011;51335;51.148;6.950;2023-04-08T02:32:03;66.00;;;29.33;;
64857;SDS011;51335;51.148;6.950;2023-04-08T02:32:35;70.05;;;29.05;;
64857;SDS011;51335;51.148;6.950;2023-04-08T02:33:06;68.07;;;29.40;;
64857;SDS011;51335;51.148;6.950;2023-04-08T02:33:37;69.28;;;28.10;;
64857;SDS011;51335;51.148;6.950;2023-04-08T02:34:11;75.82;;;29.25;;
64857;SDS011;51335;51.148;6.950;2023-04-08T02:34:43;70.75;;;28.65;;
64857;SDS011;51335;51.148;6.950;2023-04-08T02:35:14;66.32;;;27.17;;
64857;SDS011;51335;51.148;6.950;2023-04-08T02:35:45;65.70;;;27.00;;
64857;SDS011;51335;51.148;6.950;2023-04-08T02:36:17;68.55;;;27.83;;
64857;SDS011;51335;51.148;6.950;2023-04-08T02:36:48;68.30;;;28.50;;
64857;SDS011;51335;51.148;6.950;2023-04-08T02:37:19;65.43;;;28.38;;
64857;SDS011;51335;51.148;6.950;2023-04-08T02:37:50;65.45;;;28.60;;
64857;SDS011;51335;51.148;6.950;2023-04-08T02:38:21;69.03;;;29.25;;
64857;SDS011;51335;51.148;6.950;2023-04-08T02:38:51;67.40;;;28.02;;
64857;SDS011;51335;51.148;6.950;2023-04-08T02:39:29;69.05;;;28.67;;
64857;SDS011;51335;51.148;6.950;2023-04-08T02:39:59;65.72;;;28.25;;
64857;SDS011;51335;51.148;6.950;2023-04-08T02:40:33;63.17;;;28.27;;
64857;SDS011;51335;51.148;6.950;2023-04-08T02:41:03;62.67;;;27.45;;
64857;SDS011;51335;51.148;6.950;2023-04-08T02:41:34;63.50;;;27.80;;
64857;SDS011;51335;51.148;6.950;2023-04-08T02:42:04;66.13;;;27.75;;
64857;SDS011;51335;51.148;6.950;2023-04-08T02:42:34;67.03;;;28.52;;
64857;SDS011;51335;51.148;6.950;2023-04-08T02:43:04;63.10;;;27.50;;
64857;SDS011;51335;51.148;6.950;2023-04-08T02:43:35;63.03;;;28.40;;
64857;SDS011;51335;51.148;6.950;2023-04-08T02:44:05;61.47;;;27.50;;
64857;SDS011;51335;51.148;6.950;2023-04-08T02:44:35;58.10;;;26.50;;
64857;SDS011;51335;51.148;6.950;2023-04-08T02:45:05;67.15;;;29.33;;
64857;SDS011;51335;51.148;6.950;2023-04-08T02:45:45;65.57;;;28.38;;
64857;SDS011;51335;51.148;6.950;2023-04-08T02:46:15;63.33;;;27.67;;
64857;SDS011;51335;51.148;6.950;2023-04-08T02:46:46;62.53;;;26.92;;
64857;SDS011;51335;51.148;6.950;2023-04-08T02:47:16;64.97;;;27.63;;
64857;SDS011;51335;51.148;6.950;2023-04-08T02:47:46;67.15;;;28.20;;
64857;SDS011;51335;51.148;6.950;2023-04-08T02:48:17;61.55;;;26.17;;
64857;SDS011;51335;51.148;6.950;2023-04-08T02:48:47;62.97;;;26.92;;
64857;SDS011;51335;51.148;6.950;2023-04-08T02:49:17;64.25;;;28.30;;
64857;SDS011;51335;51.148;6.950;2023-04-08T02:49:48;64.28;;;26.75;;
64857;SDS011;51335;51.148;6.950;2023-04-08T02:50:18;59.15;;;26.75;;
64857;SDS011;51335;51.148;6.950;2023-04-08T02:50:48;64.22;;;26.80;;
64857;SDS011;51335;51.148;6.950;2023-04-08T02:51:18;61.03;;;26.17;;
64857;SDS011;51335;51.148;6.950;2023-04-08T02:51:49;60.83;;;26.17;;
64857;SDS011;51335;51.148;6.950;2023-04-08T02:52:19;65.47;;;27.05;;
64857;SDS011;51335;51.148;6.950;2023-04-08T02:52:49;57.42;;;26.48;;
64857;SDS011;51335;51.148;6.950;2023-04-08T02:53:21;67.35;;;28.05;;
64857;SDS011;51335;51.148;6.950;2023-04-08T02:53:52;61.10;;;26.25;;
64857;SDS011;51335;51.148;6.950;2023-04-08T02:54:22;64.25;;;27.38;;
64857;SDS011;51335;51.148;6.950;2023-04-08T02:54:53;64.68;;;26.73;;
64857;SDS011;51335;51.148;6.950;2023-04-08T02:55:23;63.45;;;27.15;;
64857;SDS011;51335;51.148;6.950;2023-04-08T02:55:53;64.78;;;26.90;;
64857;SDS011;51335;51.148;6.950;2023-04-08T02:56:23;65.53;;;26.23;;
64857;SDS011;51335;51.148;6.950;2023-04-08T02:56:54;54.58;;;26.02;;
64857;SDS011;51335;51.148;6.950;2023-04-08T02:57:24;60.83;;;26.63;;
64857;SDS011;51335;51.148;6.950;2023-04-08T02:57:54;58.65;;;26.10;;
64857;SDS011;51335;51.148;6.950;2023-04-08T02:58:25;63.83;;;27.05;;
64857;SDS011;51335;51.148;6.950;2023-04-08T02:58:55;64.07;;;26.42;;
64857;SDS011;51335;51.148;6.950;2023-04-08T02:59:25;59.75;;;27.05;;
64857;SDS011;51335;51.148;6.950;2023-04-08T02:59:55;64.75;;;25.95;;
64857;SDS011;51335;51.148;6.950;2023-04-08T03:00:25;57.88;;;25.92;;
64857;SDS011;51335;51.148;6.950;2023-04-08T03:00:56;63.95;;;26.05;;
64857;SDS011;51335;51.148;6.950;2023-04-08T03:01:26;63.70;;;26.42;;
64857;SDS011;51335;51.148;6.950;2023-04-08T03:01:56;56.47;;;26.23;;
64857;SDS011;51335;51.148;6.950;2023-04-08T03:02:27;70.70;;;26.35;;
64857;SDS011;51335;51.148;6.950;2023-04-08T03:02:57;63.50;;;25.75;;
64857;SDS011;51335;51.148;6.950;2023-04-08T03:03:27;66.10;;;26.08;;
64857;SDS011;51335;51.148;6.950;2023-04-08T03:03:57;67.63;;;25.63;;
64857;SDS011;51335;51.148;6.950;2023-04-08T03:04:27;68.35;;;26.98;;
64857;SDS011;51335;51.148;6.950;2023-04-08T03:04:58;70.30;;;28.65;;
64857;SDS011;51335;51.148;6.950;2023-04-08T03:05:28;66.05;;;27.63;;
64857;SDS011;51335;51.148;6.950;2023-04-08T03:05:59;66.15;;;28.42;;
64857;SDS011;51335;51.148;6.950;2023-04-08T03:06:29;74.55;;;28.20;;
64857;SDS011;51335;51.148;6.950;2023-04-08T03:06:59;70.05;;;27.88;;
64857;SDS011;51335;51.148;6.950;2023-04-08T03:07:30;69.40;;;29.05;;
64857;SDS011;51335;51.148;6.950;2023-04-08T03:08:01;84.55;;;28.40;;
64857;SDS011;51335;51.148;6.950;2023-04-08T03:08:31;72.32;;;27.88;;
64857;SDS011;51335;51.148;6.950;2023-04-08T03:09:01;76.05;;;28.63;;
64857;SDS011;51335;51.148;6.950;2023-04-08T03:09:31;74.35;;;28.92;;
64857;SDS011;51335;51.148;6.950;2023-04-08T03:10:02;75.47;;;27.60;;
64857;SDS011;51335;51.148;6.950;2023-04-08T03:10:32;70.75;;;27.52;;
64857;SDS011;51335;51.148;6.950;2023-04-08T03:11:02;81.90;;;27.33;;
64857;SDS011;51335;51.148;6.950;2023-04-08T03:11:33;69.07;;;27.02;;